Time;durP1;ratioP1;P1;durP2;ratioP2;P2;SDS_P1;SDS_P2;PMS_P1;PMS_P2;Temp;Humidity;BMP_temperature;BMP_pressure;BME280_temperature;BME280_humidity;BME280_pressure;Samples;Min_cycle;Max_cycle;Signal;HPM_P1;HPM_P2
2023/09/20 00:00:07;;;;;;;;;;;;;;;25.23;44.46;100623.31;5061844;28;20045;-70
2023/09/20 00:02:33;;;;;;;;;;;;;;;25.22;44.40;100628.84;5056706;28;20005;-70
2023/09/20 00:05:00;;;;;;;;;;;;;;;25.20;44.55;100636.25;5062069;28;19949;-71
2023/09/20 00:07:25;;;;;;;;;;;;;;;25.21;44.52;100637.88;5063718;28;19952;-70
2023/09/20 00:09:50;;;;;;;;;;;;;;;25.21;44.56;100633.38;5060037;28;19981;-70
2023/09/20 00:12:16;;;;;;;;;;;;;;;25.19;44.60;100643.44;5062150;28;20079;-69
2023/09/20 00:14:41;;;;;;;;;;;;;;;25.20;44.47;100642.41;5060605;28;19953;-70
2023/09/20 00:17:07;;;;;;;;;;;;;;;25.21;44.49;100633.38;5062557;28;19949;-70
2023/09/20 00:19:32;;;;;;;;;;;;;;;25.21;44.54;100635.22;5064348;28;19970;-69
2023/09/20 00:21:58;;;;;;;;;;;;;;;25.19;44.63;100627.44;5060662;28;20365;-70
2023/09/20 00:24:23;;;;;;;;;;;;;;;25.18;44.45;100644.47;5064234;28;19957;-69
2023/09/20 00:26:48;;;;;;;;;;;;;;;25.19;44.56;100630.13;5060281;28;19957;-71
2023/09/20 00:29:14;;;;;;;;;;;;;;;25.18;44.50;100623.16;5061207;28;19976;-70
2023/09/20 00:31:39;;;;;;;;;;;;;;;25.18;44.57;100625.81;5030303;28;20313;-70
2023/09/20 00:34:04;;;;;;;;;;;;;;;25.22;44.73;100628.84;5057079;28;19965;-70
2023/09/20 00:36:33;;;;;;;;;;;;;;;25.19;44.57;100630.13;5082059;28;19949;-70
2023/09/20 00:38:58;;;;;;;;;;;;;;;25.18;44.45;100633.00;5064613;28;19954;-70
2023/09/20 00:41:24;;;;;;;;;;;;;;;25.18;44.68;100630.34;5058927;28;19951;-70
2023/09/20 00:43:52;;;;;;;;;;;;;;;25.19;44.53;100629.31;5058969;28;19991;-70
2023/09/20 00:46:20;;;;;;;;;;;;;;;25.18;44.73;100628.50;5057066;28;19976;-70
2023/09/20 00:48:46;;;;;;;;;;;;;;;25.18;44.49;100617.81;5061069;28;19947;-69
2023/09/20 00:51:12;;;;;;;;;;;;;;;25.17;44.71;100628.72;5054909;28;19949;-69
2023/09/20 00:53:38;;;;;;;;;;;;;;;25.17;44.78;100621.53;5058400;28;19947;-70
2023/09/20 00:56:05;;;;;;;;;;;;;;;25.19;44.70;100629.31;5065321;28;19946;-70
2023/09/20 00:58:34;;;;;;;;;;;;;;;25.16;44.68;100627.91;5064323;28;20354;-69
2023/09/20 01:01:00;;;;;;;;;;;;;;;25.15;44.73;100626.28;5059796;28;19941;-70
2023/09/20 01:03:27;;;;;;;;;;;;;;;25.17;44.64;100621.53;5061930;28;19940;-69
2023/09/20 01:05:54;;;;;;;;;;;;;;;25.18;44.65;100623.16;5062736;28;19945;-69
2023/09/20 01:08:20;;;;;;;;;;;;;;;25.18;44.45;100627.69;5051503;28;20534;-70
2023/09/20 01:10:46;;;;;;;;;;;;;;;25.17;44.50;100618.06;5095937;28;19953;-71
2023/09/20 01:13:12;;;;;;;;;;;;;;;25.18;44.33;100625.00;5060206;28;20392;-71
2023/09/20 01:15:38;;;;;;;;;;;;;;;25.18;44.43;100619.69;5059500;28;19948;-71
2023/09/20 01:18:04;;;;;;;;;;;;;;;25.15;44.55;100623.59;5059776;28;20926;-70
2023/09/20 01:20:36;;;;;;;;;;;;;;;25.16;44.73;100624.41;5065281;28;19942;-70
2023/09/20 01:23:01;;;;;;;;;;;;;;;25.17;44.40;100621.53;5054428;28;19944;-70
2023/09/20 01:25:27;;;;;;;;;;;;;;;25.15;44.74;100620.94;5055209;28;19961;-70
2023/09/20 01:27:57;;;;;;;;;;;;;;;25.15;44.58;100612.94;5063490;28;20003;-70
2023/09/20 01:30:25;;;;;;;;;;;;;;;25.14;44.58;100613.97;5062611;28;19944;-70
2023/09/20 01:32:52;;;;;;;;;;;;;;;25.16;44.73;100606.59;5048631;28;19958;-70
2023/09/20 01:35:19;;;;;;;;;;;;;;;25.15;44.59;100612.94;5055333;28;21442;-70
2023/09/20 01:37:44;;;;;;;;;;;;;;;25.16;44.58;100619.09;5063662;28;19969;-70
2023/09/20 01:40:15;;;;;;;;;;;;;;;25.16;44.70;100611.09;5062265;28;20007;-71
2023/09/20 01:42:49;;;;;;;;;;;;;;;25.16;44.69;100617.25;5056534;28;19958;-70
2023/09/20 01:45:18;;;;;;;;;;;;;;;25.16;44.61;100609.25;5060079;28;19943;-70
2023/09/20 01:47:47;;;;;;;;;;;;;;;25.18;44.58;100611.69;5059492;28;20066;-70
2023/09/20 01:50:13;;;;;;;;;;;;;;;25.17;44.43;100604.72;5057668;28;19953;-70
2023/09/20 01:52:39;;;;;;;;;;;;;;;25.17;44.55;100607.41;5064648;28;19952;-70
2023/09/20 01:55:08;;;;;;;;;;;;;;;25.16;44.67;100603.09;5062372;28;19965;-69
2023/09/20 01:57:34;;;;;;;;;;;;;;;25.14;44.67;100608.66;5063017;28;19950;-70
2023/09/20 01:59:59;;;;;;;;;;;;;;;25.13;44.64;100603.50;5075067;28;19947;-70
2023/09/20 02:02:25;;;;;;;;;;;;;;;25.12;44.78;100610.69;5094458;27;19995;-71
2023/09/20 02:04:50;;;;;;;;;;;;;;;25.12;44.61;100607.22;5070445;28;19954;-70
2023/09/20 02:07:15;;;;;;;;;;;;;;;25.13;44.90;100611.50;5064022;28;20358;-70
2023/09/20 02:09:41;;;;;;;;;;;;;;;25.15;44.55;100607.63;5060056;28;20074;-70
2023/09/20 02:12:07;;;;;;;;;;;;;;;25.14;44.53;100606.00;5063391;28;20463;-69
2023/09/20 02:14:32;;;;;;;;;;;;;;;25.14;44.46;100600.66;5066090;28;19949;-70
2023/09/20 02:16:57;;;;;;;;;;;;;;;25.14;44.52;100594.53;5096109;27;20308;-69
2023/09/20 02:19:23;;;;;;;;;;;;;;;25.13;44.56;100599.00;5069493;28;20055;-70
2023/09/20 02:21:48;;;;;;;;;;;;;;;25.14;44.54;100600.66;5064340;28;19986;-70
2023/09/20 02:24:14;;;;;;;;;;;;;;;25.14;44.57;100597.19;5058729;28;20008;-70
2023/09/20 02:26:40;;;;;;;;;;;;;;;25.13;44.63;100598.19;5065942;28;19954;-70
2023/09/20 02:29:07;;;;;;;;;;;;;;;25.12;44.64;100594.72;5060150;28;19940;-70
2023/09/20 02:31:32;;;;;;;;;;;;;;;25.12;44.78;100600.03;5068739;28;19995;-70
2023/09/20 02:33:59;;;;;;;;;;;;;;;25.09;44.51;100600.47;5063127;28;19962;-71
2023/09/20 02:36:27;;;;;;;;;;;;;;;25.12;44.53;100600.03;5058452;28;19948;-70
2023/09/20 02:38:52;;;;;;;;;;;;;;;25.12;44.50;100599.22;5060454;28;19957;-71
2023/09/20 02:41:17;;;;;;;;;;;;;;;25.11;44.62;100597.59;5060120;28;19946;-71
2023/09/20 02:43:43;;;;;;;;;;;;;;;25.10;44.71;100587.97;5059718;28;19953;-70
2023/09/20 02:46:09;;;;;;;;;;;;;;;25.12;44.57;100605.38;5060043;28;19988;-70
2023/09/20 02:48:34;;;;;;;;;;;;;;;25.11;44.70;100598.41;5060183;28;20493;-70
2023/09/20 02:51:00;;;;;;;;;;;;;;;25.09;44.65;100594.34;5064900;28;20002;-70
2023/09/20 02:53:25;;;;;;;;;;;;;;;24.93;44.71;100563.72;5060858;28;19957;-71
2023/09/20 02:55:51;;;;;;;;;;;;;;;25.13;44.53;100582.19;5092440;27;19951;-70
2023/09/20 02:58:17;;;;;;;;;;;;;;;25.12;44.64;100591.22;5098611;27;20004;-69
2023/09/20 03:00:50;;;;;;;;;;;;;;;25.08;44.55;100580.22;5064174;28;19963;-70
2023/09/20 03:03:18;;;;;;;;;;;;;;;25.11;44.67;100595.75;5075996;28;19967;-70
2023/09/20 03:05:44;;;;;;;;;;;;;;;25.12;44.29;100581.38;5062092;28;19948;-69
2023/09/20 03:08:11;;;;;;;;;;;;;;;25.09;44.50;100589.81;5060149;28;19959;-69
2023/09/20 03:10:47;;;;;;;;;;;;;;;25.11;44.59;100585.09;5094395;27;20462;-70
2023/09/20 03:13:19;;;;;;;;;;;;;;;25.11;44.53;100578.94;5060877;28;19936;-71
2023/09/20 03:15:48;;;;;;;;;;;;;;;25.12;44.53;100583.25;5059566;28;20323;-70
2023/09/20 03:18:16;;;;;;;;;;;;;;;25.12;44.50;100585.91;5094886;27;19983;-71
2023/09/20 03:20:48;;;;;;;;;;;;;;;25.11;44.54;100578.94;5063602;28;19953;-69
2023/09/20 03:23:14;;;;;;;;;;;;;;;25.11;44.58;100576.28;5065855;28;19943;-70
2023/09/20 03:25:40;;;;;;;;;;;;;;;25.08;44.64;100566.88;5060061;28;19946;-72
2023/09/20 03:28:35;;;;;;;;;;;;;;;25.12;44.68;100564.59;5052311;28;19993;-70
2023/09/20 03:31:10;;;;;;;;;;;;;;;25.11;44.42;100568.28;5065417;28;20339;-70
2023/09/20 03:33:36;;;;;;;;;;;;;;;25.12;44.20;100567.25;5058655;28;19951;-70
2023/09/20 03:36:09;;;;;;;;;;;;;;;25.13;44.52;100568.88;5093447;27;19940;-70
2023/09/20 03:38:36;;;;;;;;;;;;;;;25.13;44.42;100560.88;5085289;28;20301;-70
2023/09/20 03:41:04;;;;;;;;;;;;;;;25.08;44.66;100555.41;5060851;28;19992;-70
2023/09/20 03:43:31;;;;;;;;;;;;;;;25.10;44.56;100554.16;5062614;28;19974;-69
2023/09/20 03:45:57;;;;;;;;;;;;;;;25.08;44.64;100556.22;5054754;28;19950;-69
2023/09/20 03:48:22;;;;;;;;;;;;;;;25.08;44.58;100556.22;5064901;28;19949;-70
2023/09/20 03:50:49;;;;;;;;;;;;;;;25.09;44.36;100563.19;5091407;27;20034;-70
2023/09/20 03:53:14;;;;;;;;;;;;;;;25.09;44.52;100575.69;5061345;28;19957;-69
2023/09/20 03:55:40;;;;;;;;;;;;;;;25.09;44.55;100573.03;5056104;28;19993;-69
2023/09/20 03:58:06;;;;;;;;;;;;;;;25.09;44.42;100565.03;5096388;27;19966;-70
2023/09/20 04:00:32;;;;;;;;;;;;;;;25.10;44.35;100572.00;5057575;28;19951;-70
2023/09/20 04:02:58;;;;;;;;;;;;;;;25.09;44.30;100565.84;5098202;27;19951;-70
2023/09/20 04:05:24;;;;;;;;;;;;;;;25.09;44.51;100571.19;5071651;28;19986;-70
2023/09/20 04:07:50;;;;;;;;;;;;;;;25.11;44.56;100562.97;5046992;28;20037;-70
2023/09/20 04:10:16;;;;;;;;;;;;;;;25.07;44.40;100575.09;5061619;28;19948;-70
2023/09/20 04:12:42;;;;;;;;;;;;;;;25.06;44.78;100558.31;5071434;28;20020;-70
2023/09/20 04:15:08;;;;;;;;;;;;;;;25.08;44.59;100560.75;5071869;28;20343;-70
2023/09/20 04:17:35;;;;;;;;;;;;;;;25.07;44.44;100559.94;5064659;28;19956;-69
2023/09/20 04:20:01;;;;;;;;;;;;;;;25.09;44.62;100551.72;5063916;28;19939;-70
2023/09/20 04:22:26;;;;;;;;;;;;;;;25.08;44.57;100545.56;5069328;28;19949;-69
2023/09/20 04:24:52;;;;;;;;;;;;;;;25.06;44.59;100544.16;5065103;28;19943;-70
2023/09/20 04:27:17;;;;;;;;;;;;;;;25.07;44.37;100541.28;5062951;28;19986;-70
2023/09/20 04:29:43;;;;;;;;;;;;;;;25.03;44.59;100542.75;5066456;28;20748;-70
2023/09/20 04:32:08;;;;;;;;;;;;;;;25.07;44.42;100540.47;5092404;27;20430;-70
2023/09/20 04:34:35;;;;;;;;;;;;;;;25.07;44.38;100535.94;5083993;28;20070;-69
2023/09/20 04:37:01;;;;;;;;;;;;;;;25.07;44.45;100540.47;5047814;28;20382;-70
2023/09/20 04:39:27;;;;;;;;;;;;;;;25.08;44.43;100542.91;5090854;27;19967;-70
2023/09/20 04:41:56;;;;;;;;;;;;;;;25.05;44.37;100545.22;5056008;28;19947;-71
2023/09/20 04:44:23;;;;;;;;;;;;;;;25.07;44.40;100540.47;5056183;28;19984;-69
2023/09/20 04:46:48;;;;;;;;;;;;;;;25.06;44.58;100541.50;5057098;28;19987;-70
2023/09/20 04:49:14;;;;;;;;;;;;;;;25.07;44.57;100537.81;5059511;28;19994;-70
2023/09/20 04:51:42;;;;;;;;;;;;;;;25.07;44.50;100537.81;5076892;28;19940;-70
2023/09/20 04:54:08;;;;;;;;;;;;;;;25.04;44.45;100544.38;5059095;28;21444;-70
2023/09/20 04:56:34;;;;;;;;;;;;;;;25.04;44.32;100539.06;5062442;28;19955;-70
2023/09/20 04:59:00;;;;;;;;;;;;;;;25.04;44.39;100543.56;5063904;28;19959;-70
2023/09/20 05:01:26;;;;;;;;;;;;;;;25.05;44.53;100547.88;5073650;28;19950;-71
2023/09/20 05:03:51;;;;;;;;;;;;;;;25.04;44.46;100541.72;5064776;28;20261;-70
2023/09/20 05:06:18;;;;;;;;;;;;;;;25.04;44.47;100549.72;5072635;28;19954;-69
2023/09/20 05:08:43;;;;;;;;;;;;;;;25.04;44.47;100552.38;5067258;28;19947;-70
2023/09/20 05:11:10;;;;;;;;;;;;;;;25.05;44.38;100553.19;5049289;28;19976;-70
2023/09/20 05:13:36;;;;;;;;;;;;;;;25.05;44.37;100566.50;5064265;28;19959;-70
2023/09/20 05:16:03;;;;;;;;;;;;;;;25.04;44.40;100551.56;5063843;28;20469;-69
2023/09/20 05:18:29;;;;;;;;;;;;;;;25.02;44.61;100548.31;5064866;28;19962;-70
2023/09/20 05:20:54;;;;;;;;;;;;;;;25.02;44.38;100551.78;5064434;28;20897;-71
2023/09/20 05:23:20;;;;;;;;;;;;;;;25.03;44.30;100552.59;5067852;28;20018;-70
2023/09/20 05:25:48;;;;;;;;;;;;;;;25.04;44.30;100546.25;5063494;28;19955;-70
2023/09/20 05:28:15;;;;;;;;;;;;;;;25.05;44.42;100551.34;5064317;28;19951;-70
2023/09/20 05:30:41;;;;;;;;;;;;;;;25.04;44.46;100546.25;5060896;28;20409;-70
2023/09/20 05:33:07;;;;;;;;;;;;;;;25.03;44.44;100556.09;5067392;28;20506;-70
2023/09/20 05:35:32;;;;;;;;;;;;;;;25.04;44.31;100547.06;5069081;28;20042;-70
2023/09/20 05:37:59;;;;;;;;;;;;;;;25.03;44.25;100544.63;5066396;28;20093;-71
2023/09/20 05:40:28;;;;;;;;;;;;;;;25.06;44.42;100538.84;5058086;28;20372;-70
2023/09/20 05:42:53;;;;;;;;;;;;;;;25.05;44.39;100543.34;5058294;28;20589;-70
2023/09/20 05:45:26;;;;;;;;;;;;;;;25.04;44.22;100543.56;5063011;28;19939;-70
2023/09/20 05:47:51;;;;;;;;;;;;;;;25.02;44.46;100535.81;5055203;28;19946;-69
2023/09/20 05:50:17;;;;;;;;;;;;;;;25.02;44.39;100541.13;5061756;28;20329;-71
2023/09/20 05:52:43;;;;;;;;;;;;;;;25.04;44.45;100544.38;5057705;28;20717;-70
2023/09/20 05:55:11;;;;;;;;;;;;;;;25.02;44.26;100549.13;5057715;28;20500;-69
2023/09/20 05:57:37;;;;;;;;;;;;;;;25.02;44.30;100553.66;5061948;28;20114;-70
2023/09/20 06:00:04;;;;;;;;;;;;;;;25.05;44.15;100547.88;5060097;28;19992;-70
2023/09/20 06:02:37;;;;;;;;;;;;;;;25.03;44.62;100557.94;5052085;28;19946;-70
2023/09/20 06:05:02;;;;;;;;;;;;;;;25.01;44.41;100550.16;5055522;28;19940;-69
2023/09/20 06:07:27;;;;;;;;;;;;;;;25.04;44.48;100557.72;5060012;28;19943;-70
2023/09/20 06:09:53;;;;;;;;;;;;;;;25.03;44.19;100553.41;5063624;28;20037;-70
2023/09/20 06:12:19;;;;;;;;;;;;;;;25.02;44.40;100559.78;5052908;28;19980;-71
2023/09/20 06:14:44;;;;;;;;;;;;;;;25.03;44.39;100563.25;5058334;28;19950;-70
2023/09/20 06:17:10;;;;;;;;;;;;;;;25.01;44.67;100568.81;5056629;28;19948;-70
2023/09/20 06:19:35;;;;;;;;;;;;;;;24.99;44.65;100555.72;5056567;28;20051;-70
2023/09/20 06:22:00;;;;;;;;;;;;;;;25.02;44.39;100553.66;5055150;28;19944;-70
2023/09/20 06:24:26;;;;;;;;;;;;;;;25.00;44.61;100556.53;5059460;28;19950;-69
2023/09/20 06:26:52;;;;;;;;;;;;;;;25.00;44.47;100552.00;5055486;28;19949;-69
2023/09/20 06:29:18;;;;;;;;;;;;;;;24.99;44.62;100563.72;5063483;28;20409;-68
2023/09/20 06:31:43;;;;;;;;;;;;;;;24.98;44.70;100561.22;5057736;28;19952;-70
2023/09/20 06:34:09;;;;;;;;;;;;;;;24.98;44.46;100547.91;5062179;28;20514;-71
2023/09/20 06:36:34;;;;;;;;;;;;;;;24.99;44.50;100550.38;5061036;28;19966;-71
2023/09/20 06:39:00;;;;;;;;;;;;;;;24.96;44.66;100550.00;5058061;28;19987;-68
2023/09/20 06:41:26;;;;;;;;;;;;;;;24.84;45.17;100562.38;5058252;28;19956;-68
2023/09/20 06:43:51;;;;;;;;;;;;;;;24.91;44.85;100558.63;5062611;28;19984;-68
2023/09/20 06:46:18;;;;;;;;;;;;;;;24.91;44.98;100561.28;5060557;28;19995;-70
2023/09/20 06:48:43;;;;;;;;;;;;;;;24.94;44.79;100560.03;5059138;28;20045;-70
2023/09/20 06:51:09;;;;;;;;;;;;;;;24.94;44.60;100554.69;5061296;28;20468;-71
2023/09/20 06:53:35;;;;;;;;;;;;;;;24.93;44.86;100555.72;5057940;28;20382;-70
2023/09/20 06:56:00;;;;;;;;;;;;;;;24.71;45.50;100548.16;5061821;28;19944;-70
2023/09/20 06:58:26;;;;;;;;;;;;;;;24.88;44.94;100551.06;5074233;28;20593;-70
2023/09/20 07:00:52;;;;;;;;;;;;;;;24.93;44.95;100555.72;5058299;28;20698;-71
2023/09/20 07:03:18;;;;;;;;;;;;;;;24.60;45.54;100548.06;5054466;28;20380;-72
2023/09/20 07:05:44;;;;;;;;;;;;;;;24.70;45.34;100549.19;5062752;28;19951;-69
2023/09/20 07:08:10;;;;;;;;;;;;;;;24.89;45.14;100557.22;5063128;28;19957;-69
2023/09/20 07:10:41;;;;;;;;;;;;;;;24.96;45.01;100558.78;5058066;28;19939;-69
2023/09/20 07:13:09;;;;;;;;;;;;;;;25.00;44.92;100549.34;5063009;28;20003;-69
2023/09/20 07:15:35;;;;;;;;;;;;;;;25.02;44.82;100548.31;5061104;28;19944;-68
2023/09/20 07:18:11;;;;;;;;;;;;;;;25.01;44.74;100539.50;5059897;28;20426;-69
2023/09/20 07:20:36;;;;;;;;;;;;;;;25.05;44.58;100550.53;5063092;28;19955;-68
2023/09/20 07:23:03;;;;;;;;;;;;;;;25.05;44.72;100545.22;5063970;28;20452;-69
2023/09/20 07:25:28;;;;;;;;;;;;;;;25.05;44.76;100542.53;5065512;28;20043;-69
2023/09/20 07:28:00;;;;;;;;;;;;;;;25.07;44.83;100548.47;5064817;28;19950;-68
2023/09/20 07:30:31;;;;;;;;;;;;;;;25.06;44.63;100544.97;5068076;28;19950;-68
2023/09/20 07:32:57;;;;;;;;;;;;;;;25.07;44.66;100543.94;5065892;28;19948;-68
2023/09/20 07:35:26;;;;;;;;;;;;;;;25.08;44.81;100545.56;5063875;28;19966;-69
2023/09/20 07:37:56;;;;;;;;;;;;;;;25.12;44.62;100541.41;5059191;28;20304;-68
2023/09/20 07:40:28;;;;;;;;;;;;;;;25.13;44.53;100545.72;5092812;27;19948;-68
2023/09/20 07:42:59;;;;;;;;;;;;;;;25.17;44.46;100546.09;5067034;28;19945;-68
2023/09/20 07:45:32;;;;;;;;;;;;;;;25.17;44.42;100541.59;5062087;28;20394;-68
2023/09/20 07:47:57;;;;;;;;;;;;;;;25.20;44.56;100541.16;5062455;28;20468;-68
2023/09/20 07:50:25;;;;;;;;;;;;;;;25.22;44.62;100546.25;5055752;28;19957;-68
2023/09/20 07:52:50;;;;;;;;;;;;;;;25.22;44.59;100549.72;5057814;28;19951;-68
2023/09/20 07:55:17;;;;;;;8.23;7.43;;;;;;;25.21;44.56;100553.44;5058834;28;24654;-65
2023/09/20 07:57:43;;;;;;;28.70;25.73;;;;;;;24.98;44.80;100548.72;5061728;28;21459;-66
2023/09/20 08:00:15;;;;;;;12.23;9.57;;;;;;;24.93;44.93;100551.22;5057678;28;20045;-66
2023/09/20 08:02:40;;;;;;;14.43;12.80;;;;;;;24.89;45.07;100565.19;5058878;28;20091;-66
2023/09/20 08:05:06;;;;;;;9.80;6.65;;;;;;;24.89;45.11;100568.69;5062229;28;20386;-65
2023/09/20 08:07:37;;;;;;;4.35;2.70;;;;;;;24.86;45.00;100553.16;5059343;28;20044;-65
2023/09/20 08:10:03;;;;;;;142.00;100.78;;;;;;;24.88;45.34;100563.56;5062268;28;20063;-66
2023/09/20 08:12:28;;;;;;;100.78;85.72;;;;;;;24.66;45.70;100552.50;5064124;28;20036;-68
2023/09/20 08:14:54;;;;;;;160.45;109.20;;;;;;;24.62;45.77;100562.78;5055973;28;20040;-68
2023/09/20 08:20:09;;;;;;;76.38;66.18;;;;;;;24.58;45.91;100576.72;5063116;28;20044;-66
2023/09/20 09:01:02;;;;;;;1103.63;468.40;;;;;;;24.79;45.70;100596.84;5058969;28;21695;-69
2023/09/20 09:03:28;;;;;;;1096.45;466.58;;;;;;;24.79;45.51;100588.88;5058630;28;20040;-68
2023/09/20 09:05:53;;;;;;;1124.88;478.55;;;;;;;24.94;45.54;100602.63;5057534;28;20044;-66
2023/09/20 09:08:19;;;;;;;1070.75;457.33;;;;;;;25.03;45.04;100601.38;5049787;28;20612;-65
2023/09/20 09:10:45;;;;;;;461.17;192.13;;;;;;;25.04;45.27;100600.34;5048859;28;20570;-66
2023/09/20 09:13:10;;;;;;;937.83;398.38;;;;;;;25.02;45.14;100594.41;5059049;28;20044;-65
2023/09/20 09:15:36;;;;;;;994.15;423.85;;;;;;;25.06;44.88;100608.09;5053910;28;20044;-65
2023/09/20 09:18:01;;;;;;;986.15;425.45;;;;;;;25.06;44.90;100598.25;5056207;28;20141;-64
2023/09/20 09:20:29;;;;;;;1071.47;459.45;;;;;;;25.09;44.98;100605.00;5053376;28;20782;-65
2023/09/20 09:22:55;;;;;;;1119.30;480.60;;;;;;;24.98;45.37;100593.19;5057849;28;20044;-65
2023/09/20 09:25:31;;;;;;;1089.28;470.77;;;;;;;25.04;45.11;100600.34;5070755;28;20036;-68
2023/09/20 09:27:57;;;;;;;1061.13;458.60;;;;;;;25.08;45.48;100593.53;5060289;28;20032;-67
2023/09/20 09:30:23;;;;;;;1074.38;464.98;;;;;;;25.02;45.20;100594.41;5057700;28;20056;-72
2023/09/20 09:32:50;;;;;;;1050.38;457.80;;;;;;;25.07;45.23;100588.41;5065757;28;20089;-71
2023/09/20 09:35:18;;;;;;;1036.35;449.88;;;;;;;25.03;45.18;100587.25;5060373;28;20063;-71
2023/09/20 09:37:44;;;;;;;1063.70;459.58;;;;;;;25.09;45.15;100591.69;5058925;28;20064;-71
2023/09/20 09:40:11;;;;;;;1065.05;461.83;;;;;;;25.15;44.97;100596.97;5050954;28;20443;-71
2023/09/20 09:42:39;;;;;;;1045.15;451.45;;;;;;;25.16;44.89;100593.25;5062982;28;20046;-69
2023/09/20 09:45:06;;;;;;;1024.47;441.77;;;;;;;25.16;45.10;100579.13;5054887;28;20052;-70
2023/09/20 09:47:35;;;;;;;981.03;423.05;;;;;;;25.17;44.87;100589.56;5054777;28;20036;-70
2023/09/20 09:50:03;;;;;;;981.53;424.05;;;;;;;25.18;45.02;100579.72;5061538;28;20024;-70
2023/09/20 09:52:29;;;;;;;992.63;428.75;;;;;;;25.21;45.06;100579.25;5062546;28;20067;-69
2023/09/20 09:54:55;;;;;;;977.20;420.92;;;;;;;25.22;44.91;100580.88;5060409;28;20447;-69
2023/09/20 09:57:21;;;;;;;991.70;425.98;;;;;;;25.18;45.03;100569.06;5062568;28;20117;-70
2023/09/20 09:59:51;;;;;;;996.45;427.13;;;;;;;25.16;44.63;100566.63;5058205;28;20108;-70
2023/09/20 10:02:18;;;;;;;;;;;;;;;25.25;44.99;100580.44;5062085;28;20528;-69
2023/09/20 10:04:53;;;;;;;1070.15;459.25;;;;;;;25.25;44.92;100573.25;5070455;28;19924;-70
2023/09/20 10:07:22;;;;;;;1120.47;481.52;;;;;;;25.23;44.93;100571.84;5060138;28;20040;-70
2023/09/20 10:09:50;;;;;;;1059.30;455.45;;;;;;;25.27;44.82;100573.03;5064740;28;20036;-71
2023/09/20 10:12:18;;;;;;;1067.10;456.52;;;;;;;25.26;44.90;100574.06;5061688;28;20044;-71
2023/09/20 10:14:43;;;;;;;1052.10;448.17;;;;;;;25.25;44.95;100570.59;5065300;28;20123;-72
2023/09/20 10:17:16;;;;;;;1041.43;445.13;;;;;;;25.26;44.66;100574.88;5063062;28;20036;-70
2023/09/20 10:19:42;;;;;;;1036.75;445.10;;;;;;;25.27;44.86;100576.50;5067411;28;20758;-71
2023/09/20 10:22:11;;;;;;;1046.43;446.48;;;;;;;25.26;44.66;100569.56;5064981;28;20097;-70
2023/09/20 10:25:00;;;;;;;1071.70;457.95;;;;;;;25.29;44.95;100582.44;5064006;28;20906;-70
2023/09/20 10:27:27;;;;;;;1080.15;456.33;;;;;;;25.27;44.72;100573.84;5062279;28;20546;-71
2023/09/20 10:30:10;;;;;;;1090.30;465.05;;;;;;;25.31;44.66;100568.88;5064941;28;20040;-71
2023/09/20 10:32:48;;;;;;;1098.57;470.08;;;;;;;25.30;44.68;100578.72;5056357;28;20041;-71
2023/09/20 10:35:19;;;;;;;1123.68;483.00;;;;;;;25.31;44.65;100582.22;5062103;28;20771;-70
2023/09/20 10:38:17;;;;;;;1144.03;490.80;;;;;;;25.33;45.00;100576.69;5063757;28;20101;-71
2023/09/20 10:40:46;;;;;;;1171.47;507.15;;;;;;;25.33;44.73;100574.03;5061645;28;20143;-71
2023/09/20 10:43:16;;;;;;;1234.53;526.58;;;;;;;25.33;44.90;100569.50;5061266;28;20043;-70
2023/09/20 10:45:50;;;;;;;1245.30;534.40;;;;;;;25.31;44.86;100576.88;5063772;28;20047;-71
2023/09/20 10:48:22;;;;;;;1244.20;535.70;;;;;;;25.33;44.80;100568.69;5063184;28;20518;-70
2023/09/20 10:50:50;;;;;;;1240.30;535.10;;;;;;;25.33;44.77;100576.69;5060634;28;20789;-71
2023/09/20 10:53:19;;;;;;;1249.88;537.55;;;;;;;25.34;44.82;100576.47;5060085;28;20041;-71
2023/09/20 10:55:45;;;;;;;1247.67;534.80;;;;;;;25.32;44.88;100570.53;5063859;28;20051;-70
2023/09/20 10:58:14;;;;;;;1253.25;537.60;;;;;;;25.35;44.62;100569.28;5068893;28;20484;-70
2023/09/20 11:00:40;;;;;;;1255.37;537.67;;;;;;;25.36;44.57;100566.38;5063352;28;20056;-70
2023/09/20 11:03:09;;;;;;;1260.70;539.35;;;;;;;25.32;44.86;100559.88;5063988;28;20463;-71
2023/09/20 11:05:36;;;;;;;1246.40;533.05;;;;;;;25.36;44.81;100568.25;5075189;28;21277;-70
2023/09/20 11:08:11;;;;;;;1243.20;532.55;;;;;;;25.36;44.66;100568.25;5054420;28;20131;-69
2023/09/20 11:10:40;;;;;;;1235.20;528.58;;;;;;;25.37;44.60;100570.69;5058163;28;20043;-70
2023/09/20 11:13:10;;;;;;;1238.47;532.63;;;;;;;25.30;44.63;100562.75;5062143;28;20041;-71
2023/09/20 11:15:41;;;;;;;1241.90;533.20;;;;;;;25.38;44.76;100574.16;5061136;28;20077;-71
2023/09/20 11:18:15;;;;;;;1232.90;529.55;;;;;;;25.36;44.62;100568.25;5062929;28;20040;-70
2023/09/20 11:20:42;;;;;;;1234.05;528.42;;;;;;;25.37;44.35;100570.69;5062389;28;20525;-69
2023/09/20 11:23:09;;;;;;;1231.40;526.80;;;;;;;25.39;44.80;100581.13;5064920;28;20055;-70
2023/09/20 11:25:36;;;;;;;1222.25;523.60;;;;;;;25.38;44.81;100555.50;5058360;28;20044;-69
2023/09/20 11:28:02;;;;;;;1222.25;524.38;;;;;;;25.40;44.50;100559.56;5063433;28;20123;-69
2023/09/20 11:30:28;;;;;;;1211.57;519.33;;;;;;;25.37;44.58;100548.53;5058770;28;20410;-69
2023/09/20 11:32:55;;;;;;;1219.40;522.97;;;;;;;25.33;44.51;100539.38;5060306;28;20044;-70
2023/09/20 11:35:50;;;;;;;1223.90;525.28;;;;;;;25.39;44.53;100554.47;5059167;28;20217;-69
2023/09/20 11:38:16;;;;;;;1227.43;527.20;;;;;;;25.40;44.36;100550.75;5029324;28;20057;-69
2023/09/20 11:40:41;;;;;;;1239.68;531.95;;;;;;;25.41;44.46;100555.88;5064657;28;20047;-70
2023/09/20 11:43:12;;;;;;;1230.15;528.38;;;;;;;25.40;44.44;100550.75;5057608;28;20032;-70
2023/09/20 11:45:41;;;;;;;1223.95;526.97;;;;;;;25.39;44.67;100541.13;5061574;28;20481;-69
2023/09/20 11:48:13;;;;;;;1198.47;517.85;;;;;;;25.40;44.81;100556.91;5059520;28;20028;-69
2023/09/20 11:50:44;;;;;;;1214.82;524.47;;;;;;;25.39;44.29;100546.47;5059019;28;20969;-69
2023/09/20 11:53:14;;;;;;;1233.05;529.75;;;;;;;25.37;44.79;100541.38;5067582;28;20127;-70
2023/09/20 11:55:43;;;;;;;1233.15;529.53;;;;;;;25.41;44.53;100545.19;5059178;28;20826;-69
2023/09/20 11:58:14;;;;;;;1225.13;525.75;;;;;;;25.42;44.35;100543.34;5059490;28;20036;-69
2023/09/20 12:00:43;;;;;;;1245.53;533.47;;;;;;;25.36;44.67;100530.94;5058126;28;20047;-70
2023/09/20 12:03:08;;;;;;;1226.50;526.75;;;;;;;25.42;44.62;100541.50;5054796;28;20411;-70
2023/09/20 12:05:35;;;;;;;1247.72;536.15;;;;;;;25.42;44.54;100525.50;5056214;28;20044;-69
2023/09/20 12:08:02;;;;;;;1236.32;534.85;;;;;;;25.45;44.80;100542.91;5060789;28;20079;-69
2023/09/20 12:10:30;;;;;;;1236.88;533.47;;;;;;;25.47;44.31;100533.63;5062503;28;20576;-70
2023/09/20 12:12:56;;;;;;;1232.57;530.88;;;;;;;25.47;44.32;100533.63;5059592;28;20056;-69
2023/09/20 12:15:23;;;;;;;1235.20;530.78;;;;;;;25.48;44.32;100531.78;5057043;28;20388;-70
2023/09/20 12:17:51;;;;;;;1227.07;530.67;;;;;;;25.45;44.33;100525.06;5050293;28;20047;-70
2023/09/20 12:20:17;;;;;;;1229.60;531.95;;;;;;;25.48;44.37;100529.94;5055927;28;20490;-70
2023/09/20 12:22:43;;;;;;;1234.70;533.38;;;;;;;25.49;44.55;100533.41;5054075;28;20877;-70
2023/09/20 12:25:11;;;;;;;1238.97;535.25;;;;;;;25.49;44.34;100518.22;5057028;28;20581;-69
2023/09/20 12:27:37;;;;;;;1225.70;531.40;;;;;;;25.52;44.38;100530.31;5061814;28;20032;-70
2023/09/20 12:30:04;;;;;;;1228.60;533.55;;;;;;;25.50;44.47;100516.41;5057637;28;20060;-70
2023/09/20 12:32:31;;;;;;;1220.25;529.70;;;;;;;25.50;44.23;100505.75;5055804;28;20619;-69
2023/09/20 12:34:57;;;;;;;1235.95;534.00;;;;;;;25.49;44.64;100515.56;5056157;28;20040;-69
2023/09/20 12:37:42;;;;;;;1229.25;532.13;;;;;;;25.51;44.26;100510.03;5055147;28;20055;-69